Huvudsida
METAR-TAF:

METAR-TAF

Flygplatser :

Ängelholm-Helsingborg Airport

Helsingborg, Sverige

latitud: 56-17-46N, longitud: 012-50-50E, höjd: 21 m

Aktuellt väderrapport

Denna rapport gjordes för 1 timme och 5 minuter sedan, klockan 13:50 UTC
Vind 18 kt från väst
Temperatur 19°C
Fuktighet 60%
Tryck 1013 hPa
Sikt 10 km eller mer
Spridda moln på en höjd av 2900 ft

METAR: ESTA 201350Z 27018KT 9999 SCT029 19/11 Q1013

Tid: 16:55 (14:55 UTC)

Väderprognos

Denna rapport gjordes för 3 timmar och 58 minuter sedan, klockan 10:57 UTC
Prognos gäller från 20 kl. 12 UTC till 20 kl. 21 UTC
Vind 15 kt från väst/nordväst
Sikt 10 km eller mer
Spridda moln på en höjd av 400 ft
Spridda moln på en höjd av 3000 ft
Temporärt
från 20 kl. 12 UTC till 20 kl. 16 UTC
Vind 18 kt från väst/nordväst i byarna ända upp till 28 kt
Blir
från 20 kl. 17 UTC till 20 kl. 20 UTC
Vind 6 kt från väst/nordväst

TAF: ESTA 201057Z 2012/2021 29015KT 9999 SCT004 SCT030 TEMPO 2012/2016 30018G28KT BECMG 2017/2020 29006KT

Aktuella väderrapporter och prognoser från 4000 flygplatser (METAR- och TAF-rapporter).

De tillgängliga stationerna syns som gula och röda prickar på kartan.

För musen över prickarna för att se namnen på stationerna.

Klicka sedan för att få väderrapporter och prognoser.

För att ändra kartan: Klicka på de gröna knapparna med ett svart kors på för att zooma in; den gröna knappen med ett streck på för att zooma ut; eller på de gröna pilarna för angränsande kartor.


METAR-TAF: